Time;durP1;ratioP1;P1;durP2;ratioP2;P2;SDS_P1;SDS_P2;PMS_P1;PMS_P2;Temp;Humidity;BMP_temperature;BMP_pressure;BME280_temperature;BME280_humidity;BME280_pressure;Samples;Min_cycle;Max_cycle;Signal;HPM_P1;HPM_P2
2022/09/26 00:01:14;;;;;;;;;;;8.00;99.90;;;;;;4977531;28;19917;-84
2022/09/26 00:07:08;;;;;;;;;;;8.00;99.90;;;;;;4995526;28;19964;-84
2022/09/26 00:09:34;;;;;;;;;;;8.00;99.90;;;;;;4977453;28;20366;-84
2022/09/26 00:12:00;;;;;;;;;;;8.00;99.90;;;;;;5009958;28;19917;-83
2022/09/26 00:14:27;;;;;;;;;;;8.00;99.90;;;;;;4977023;28;19910;-84
2022/09/26 00:16:53;;;;;;;;;;;8.10;99.90;;;;;;4977426;28;20004;-84
2022/09/26 00:19:19;;;;;;;;;;;8.20;99.90;;;;;;4993281;28;20013;-84
2022/09/26 00:21:45;;;;;;;;;;;8.20;99.90;;;;;;4977673;28;19913;-84
2022/09/26 00:24:11;;;;;;;;;;;8.20;99.90;;;;;;4977409;28;19917;-84
2022/09/26 00:26:37;;;;;;;;;;;8.30;99.90;;;;;;4994666;28;20312;-84
2022/09/26 00:29:06;;;;;;;;;;;8.30;99.90;;;;;;4994967;28;20283;-83
2022/09/26 00:31:33;;;;;;;;;;;8.30;99.90;;;;;;4977761;28;19910;-84
2022/09/26 00:33:58;;;;;;;;;;;8.30;99.90;;;;;;4993612;28;19945;-84
2022/09/26 00:36:25;;;;;;;;;;;8.30;99.90;;;;;;4977578;28;19918;-84
2022/09/26 00:38:50;;;;;;;;;;;8.30;99.90;;;;;;4977398;28;19909;-84
2022/09/26 00:41:16;;;;;;;;;;;8.30;99.90;;;;;;5009692;28;19913;-84
2022/09/26 00:43:42;;;;;;;;;;;8.20;99.90;;;;;;5009630;28;19910;-84
2022/09/26 00:46:21;;;;;;;;;;;8.30;99.90;;;;;;5009575;28;19960;-84
2022/09/26 00:48:48;;;;;;;;;;;8.20;99.90;;;;;;5008775;28;19925;-84
2022/09/26 00:51:14;;;;;;;;;;;8.20;99.90;;;;;;4976933;28;19910;-84
2022/09/26 00:53:45;;;;;;;;;;;8.10;99.90;;;;;;4976944;28;19909;-85
2022/09/26 00:56:15;;;;;;;;;;;8.10;99.90;;;;;;4994351;28;19910;-84
2022/09/26 00:58:43;;;;;;;;;;;8.10;99.90;;;;;;4977228;28;19909;-85
2022/09/26 01:01:08;;;;;;;;;;;8.00;99.90;;;;;;4977259;28;19916;-85
2022/09/26 01:03:36;;;;;;;;;;;8.00;99.90;;;;;;4976809;28;19929;-84
2022/09/26 01:06:01;;;;;;;;;;;8.00;99.90;;;;;;5009586;28;19914;-84
2022/09/26 01:08:31;;;;;;;;;;;8.00;99.90;;;;;;4976664;28;19909;-84
2022/09/26 01:10:57;;;;;;;;;;;7.90;99.90;;;;;;4976449;28;25083;-84
2022/09/26 01:13:23;;;;;;;;;;;8.00;99.90;;;;;;4975859;28;19917;-84
2022/09/26 01:15:52;;;;;;;;;;;7.90;99.90;;;;;;4976201;28;20012;-85
2022/09/26 01:18:18;;;;;;;;;;;7.90;99.90;;;;;;5009963;28;20411;-86
2022/09/26 01:20:49;;;;;;;;;;;7.90;99.90;;;;;;4993654;28;19910;-85
2022/09/26 01:23:44;;;;;;;;;;;7.90;99.90;;;;;;4991357;28;19914;-84
2022/09/26 01:26:13;;;;;;;;;;;7.80;99.90;;;;;;4976473;28;19916;-85
2022/09/26 01:28:40;;;;;;;;;;;7.80;99.90;;;;;;4992923;28;19906;-84
2022/09/26 01:31:12;;;;;;;;;;;7.70;99.90;;;;;;4993146;28;20361;-84
2022/09/26 01:33:44;;;;;;;;;;;7.60;99.90;;;;;;5009059;28;19941;-84
2022/09/26 01:36:30;;;;;;;;;;;7.60;99.90;;;;;;4992447;28;19910;-84
2022/09/26 01:38:56;;;;;;;;;;;7.60;99.90;;;;;;4991907;28;19909;-85
2022/09/26 01:41:31;;;;;;;;;;;7.60;99.90;;;;;;4992626;28;20273;-84
2022/09/26 01:44:03;;;;;;;;;;;7.60;99.90;;;;;;4992630;28;20027;-84
2022/09/26 01:46:41;;;;;;;;;;;7.60;99.90;;;;;;5009033;28;19916;-84
2022/09/26 01:49:44;;;;;;;;;;;7.70;99.90;;;;;;4976539;28;19914;-84
2022/09/26 01:52:10;;;;;;;;;;;7.60;99.90;;;;;;4992445;28;24077;-84
2022/09/26 01:54:36;;;;;;;;;;;7.70;99.90;;;;;;4991920;28;20253;-85
2022/09/26 01:57:03;;;;;;;;;;;7.70;99.90;;;;;;5008704;28;20278;-85
2022/09/26 01:59:32;;;;;;;;;;;7.70;99.90;;;;;;4977597;28;19910;-84
2022/09/26 02:02:05;;;;;;;;;;;7.70;99.90;;;;;;4996639;28;20012;-84
2022/09/26 02:04:37;;;;;;;;;;;7.70;99.90;;;;;;4980194;28;20011;-84
2022/09/26 02:07:24;;;;;;;;;;;7.70;99.90;;;;;;4996636;28;20010;-84
2022/09/26 02:09:52;;;;;;;;;;;7.70;99.90;;;;;;4995699;28;19914;-84
2022/09/26 02:12:25;;;;;;;;;;;7.60;99.90;;;;;;4980143;28;19906;-85
2022/09/26 02:14:51;;;;;;;;;;;7.60;99.90;;;;;;4996322;28;19941;-85
2022/09/26 02:17:21;;;;;;;;;;;7.60;99.90;;;;;;4980017;28;20369;-84
2022/09/26 02:19:46;;;;;;;;;;;7.50;99.90;;;;;;4980208;28;19910;-84
2022/09/26 02:22:13;;;;;;;;;;;7.50;99.90;;;;;;4996080;28;19960;-84
2022/09/26 02:24:39;;;;;;;;;;;7.40;99.90;;;;;;4995998;28;19952;-84
2022/09/26 02:27:05;;;;;;;;;;;7.40;99.90;;;;;;4979350;28;19917;-84
2022/09/26 02:29:31;;;;;;;;;;;7.30;99.90;;;;;;4979332;28;19913;-85
2022/09/26 02:31:59;;;;;;;;;;;7.20;99.90;;;;;;4979638;28;20389;-84
2022/09/26 02:34:25;;;;;;;;;;;7.20;99.90;;;;;;4979350;28;19921;-84
2022/09/26 02:36:51;;;;;;;;;;;7.20;99.90;;;;;;4979198;28;19909;-85
2022/09/26 02:39:17;;;;;;;;;;;7.20;99.90;;;;;;4995984;28;19945;-85
2022/09/26 02:42:03;;;;;;;;;;;7.20;99.90;;;;;;4981652;28;19916;-85
2022/09/26 02:44:52;;;;;;;;;;;7.30;99.90;;;;;;4979359;28;19967;-84
2022/09/26 02:50:52;;;;;;;;;;;7.20;99.90;;;;;;4996637;28;20007;-84
2022/09/26 02:53:34;;;;;;;;;;;7.30;99.90;;;;;;4979241;28;19910;-84
2022/09/26 02:56:10;;;;;;;;;;;7.30;99.90;;;;;;4995275;28;20313;-84
2022/09/26 02:58:43;;;;;;;;;;;7.20;99.90;;;;;;4995208;28;19909;-84
2022/09/26 03:01:13;;;;;;;;;;;7.10;99.90;;;;;;4978974;28;19952;-85
2022/09/26 03:03:43;;;;;;;;;;;7.10;99.90;;;;;;4994460;28;19917;-85
2022/09/26 03:06:10;;;;;;;;;;;7.00;99.90;;;;;;4978932;28;19909;-84
2022/09/26 03:08:41;;;;;;;;;;;7.00;99.90;;;;;;5011271;28;19913;-84
2022/09/26 03:11:09;;;;;;;;;;;6.90;99.90;;;;;;4978863;28;19910;-84
2022/09/26 03:13:37;;;;;;;;;;;6.80;99.90;;;;;;4978468;28;19936;-84
2022/09/26 03:16:05;;;;;;;;;;;6.70;99.90;;;;;;4978683;28;19910;-84
2022/09/26 03:18:38;;;;;;;;;;;6.50;99.90;;;;;;4994650;28;19916;-84
2022/09/26 03:21:05;;;;;;;;;;;6.30;99.90;;;;;;4978985;28;19968;-85
2022/09/26 03:23:31;;;;;;;;;;;6.20;99.90;;;;;;4994429;28;19968;-84
2022/09/26 03:26:23;;;;;;;;;;;6.10;99.90;;;;;;4979373;28;20004;-84
2022/09/26 03:28:56;;;;;;;;;;;6.00;99.90;;;;;;5011437;28;19917;-85
2022/09/26 03:31:24;;;;;;;;;;;5.90;99.90;;;;;;4979010;28;19913;-84
2022/09/26 03:33:56;;;;;;;;;;;5.90;99.90;;;;;;4979021;28;19964;-85
2022/09/26 03:36:23;;;;;;;;;;;5.80;99.90;;;;;;4978313;28;19917;-84
2022/09/26 03:38:49;;;;;;;;;;;5.70;99.90;;;;;;4978877;28;19913;-85
2022/09/26 03:41:34;;;;;;;;;;;5.70;99.90;;;;;;5011333;28;19914;-85
2022/09/26 03:44:05;;;;;;;;;;;5.50;99.90;;;;;;4979135;28;19914;-84
2022/09/26 03:46:51;;;;;;;;;;;5.40;99.90;;;;;;4993456;28;19968;-85
2022/09/26 03:49:17;;;;;;;;;;;5.40;99.90;;;;;;5010878;28;20013;-85
2022/09/26 03:51:43;;;;;;;;;;;5.40;99.90;;;;;;4978227;28;19968;-84
2022/09/26 03:54:12;;;;;;;;;;;5.40;99.90;;;;;;5010805;28;19910;-85
2022/09/26 03:56:38;;;;;;;;;;;5.40;99.90;;;;;;4978165;28;19910;-85
2022/09/26 03:59:03;;;;;;;;;;;5.40;99.90;;;;;;4978373;28;20016;-84
2022/09/26 04:01:31;;;;;;;;;;;5.40;99.90;;;;;;4978515;28;19964;-85
2022/09/26 04:03:56;;;;;;;;;;;5.40;99.90;;;;;;4977855;28;19973;-85
2022/09/26 04:06:22;;;;;;;;;;;5.70;99.90;;;;;;4994284;28;19949;-85
2022/09/26 04:08:50;;;;;;;;;;;6.00;99.90;;;;;;4977412;28;19924;-85
2022/09/26 04:11:18;;;;;;;;;;;6.30;99.90;;;;;;5010072;28;19914;-85
2022/09/26 04:13:44;;;;;;;;;;;6.50;99.90;;;;;;4977555;28;20273;-85
2022/09/26 04:16:10;;;;;;;;;;;6.60;99.90;;;;;;4989623;28;19906;-85
2022/09/26 04:18:36;;;;;;;;;;;6.60;99.90;;;;;;4977928;28;19960;-85
2022/09/26 04:21:06;;;;;;;;;;;6.70;99.90;;;;;;5010297;28;19942;-85
2022/09/26 04:23:34;;;;;;;;;;;6.70;99.90;;;;;;4992756;28;19910;-85
2022/09/26 04:26:07;;;;;;;;;;;6.70;99.90;;;;;;4977244;28;19909;-85
2022/09/26 04:28:34;;;;;;;;;;;6.70;99.90;;;;;;4977691;28;19913;-85
2022/09/26 04:31:02;;;;;;;;;;;6.80;99.90;;;;;;4977538;28;20632;-85
2022/09/26 04:33:29;;;;;;;;;;;6.90;99.90;;;;;;4993181;28;20000;-85
2022/09/26 04:36:07;;;;;;;;;;;7.00;99.90;;;;;;4992838;28;19913;-85
2022/09/26 04:38:33;;;;;;;;;;;7.10;99.90;;;;;;5009504;28;20280;-85
2022/09/26 04:41:04;;;;;;;;;;;7.10;99.90;;;;;;5009282;28;19918;-85
2022/09/26 04:43:29;;;;;;;;;;;7.00;99.90;;;;;;4976677;28;20336;-85
2022/09/26 04:45:55;;;;;;;;;;;6.90;99.90;;;;;;4976899;28;19913;-85
2022/09/26 04:48:22;;;;;;;;;;;6.80;99.90;;;;;;4976989;28;19965;-84
2022/09/26 04:51:14;;;;;;;;;;;6.70;99.90;;;;;;4994969;28;19918;-86
2022/09/26 04:53:40;;;;;;;;;;;6.60;99.90;;;;;;4976646;28;19914;-85
2022/09/26 04:56:19;;;;;;;;;;;6.60;99.90;;;;;;4978011;28;19914;-85
2022/09/26 04:58:45;;;;;;;;;;;6.70;99.90;;;;;;4976005;28;19964;-85
2022/09/26 05:01:13;;;;;;;;;;;6.70;99.90;;;;;;4976279;28;19914;-84
2022/09/26 05:03:56;;;;;;;;;;;6.70;99.90;;;;;;4978212;28;20440;-85
2022/09/26 05:06:22;;;;;;;;;;;6.60;99.90;;;;;;4976412;28;19925;-84
2022/09/26 05:08:47;;;;;;;;;;;6.60;99.90;;;;;;4976368;28;20281;-85
2022/09/26 05:11:20;;;;;;;;;;;6.60;99.90;;;;;;4992397;28;19917;-85
2022/09/26 05:13:47;;;;;;;;;;;6.70;99.90;;;;;;5008567;28;19914;-85
2022/09/26 05:16:13;;;;;;;;;;;6.80;99.90;;;;;;4975843;28;19914;-84
2022/09/26 05:18:39;;;;;;;;;;;6.80;99.90;;;;;;4976730;28;20393;-88
2022/09/26 05:21:06;;;;;;;;;;;7.00;99.90;;;;;;4977565;28;19913;-89
2022/09/26 05:26:26;;;;;;;;;;;7.20;99.90;;;;;;5010040;28;20333;-87
2022/09/26 05:28:52;;;;;;;;;;;7.30;99.90;;;;;;4977597;28;19953;-88
2022/09/26 05:31:24;;;;;;;;;;;7.30;99.90;;;;;;4993581;28;19905;-87
2022/09/26 05:33:50;;;;;;;;;;;7.30;99.90;;;;;;4977035;28;19909;-87
2022/09/26 05:36:17;;;;;;;;;;;7.30;99.90;;;;;;4993577;28;19910;-88
2022/09/26 05:38:44;;;;;;;;;;;7.30;99.90;;;;;;4977277;28;20000;-88
2022/09/26 05:41:11;;;;;;;;;;;7.30;99.90;;;;;;4977238;28;19933;-88
2022/09/26 05:43:36;;;;;;;;;;;7.30;99.90;;;;;;4976893;28;19957;-88
2022/09/26 05:46:06;;;;;;;;;;;7.30;99.90;;;;;;4976747;28;19916;-87
2022/09/26 05:48:38;;;;;;;;;;;7.40;99.90;;;;;;4977028;28;19940;-87
2022/09/26 05:51:11;;;;;;;;;;;7.40;99.90;;;;;;5008547;28;19918;-87
2022/09/26 05:53:41;;;;;;;;;;;7.50;99.90;;;;;;4976983;28;20281;-87
2022/09/26 05:56:07;;;;;;;;;;;7.60;99.90;;;;;;4993218;28;19909;-87
2022/09/26 05:58:54;;;;;;;;;;;7.70;99.90;;;;;;4979759;28;19906;-87
2022/09/26 06:01:37;;;;;;;;;;;7.70;99.90;;;;;;4993516;28;19951;-88
2022/09/26 06:04:15;;;;;;;;;;;7.80;99.90;;;;;;4978256;28;19913;-87
2022/09/26 06:06:59;;;;;;;;;;;8.00;99.90;;;;;;4979441;28;20004;-88
2022/09/26 06:09:25;;;;;;;;;;;8.00;99.90;;;;;;4993077;28;20309;-87
2022/09/26 06:12:13;;;;;;;;;;;8.10;99.90;;;;;;4980034;28;20426;-87
2022/09/26 06:14:41;;;;;;;;;;;8.20;99.90;;;;;;4976511;28;19985;-87
2022/09/26 06:17:06;;;;;;;;;;;8.10;99.90;;;;;;4976803;28;19913;-87
2022/09/26 06:19:33;;;;;;;;;;;8.20;99.90;;;;;;4976580;28;19972;-88
2022/09/26 06:21:59;;;;;;;;;;;8.30;99.90;;;;;;4976482;28;20384;-87
2022/09/26 06:24:24;;;;;;;;;;;8.50;99.90;;;;;;4976363;28;20007;-87
2022/09/26 06:26:55;;;;;;;;;;;8.60;99.90;;;;;;4992870;28;20007;-88
2022/09/26 06:29:20;;;;;;;;;;;8.60;99.90;;;;;;5008820;28;19972;-88
2022/09/26 06:31:46;;;;;;;;;;;8.60;99.90;;;;;;4976156;28;19906;-88
2022/09/26 06:34:31;;;;;;;;;;;8.40;99.90;;;;;;4992588;28;19914;-87
2022/09/26 06:37:28;;;;;;;;;;;8.50;99.90;;;;;;4980305;28;20251;-87
2022/09/26 06:39:54;;;;;;;;;;;8.40;99.90;;;;;;4992498;28;20292;-87
2022/09/26 06:42:20;;;;;;;;;;;8.30;99.90;;;;;;4975832;28;19909;-88
2022/09/26 06:45:11;;;;;;;;;;;8.40;99.90;;;;;;4990690;28;20643;-88
2022/09/26 06:48:06;;;;;;;;;;;8.60;99.90;;;;;;4997126;28;19910;-88
2022/09/26 06:50:55;;;;;;;;;;;8.60;99.90;;;;;;4996366;28;19918;-88
2022/09/26 06:53:21;;;;;;;;;;;8.60;99.90;;;;;;4980016;28;19920;-87
2022/09/26 06:55:47;;;;;;;;;;;8.70;99.90;;;;;;5012498;28;19910;-88
2022/09/26 06:58:13;;;;;;;;;;;8.70;99.90;;;;;;4980415;28;19977;-89
2022/09/26 07:00:55;;;;;;;;;;;8.70;99.90;;;;;;5012180;28;19910;-87
2022/09/26 07:03:39;;;;;;;;;;;8.70;99.90;;;;;;4995961;28;19952;-88
2022/09/26 07:06:21;;;;;;;;;;;8.80;99.90;;;;;;4981754;28;19909;-88
2022/09/26 07:08:50;;;;;;;;;;;9.00;99.90;;;;;;4979034;28;25116;-88
2022/09/26 07:11:18;;;;;;;;;;;9.10;99.90;;;;;;4979743;28;20313;-88
2022/09/26 07:13:44;;;;;;;;;;;9.20;99.90;;;;;;4995457;28;20004;-87
2022/09/26 07:16:11;;;;;;;;;;;9.30;99.90;;;;;;4996213;28;19906;-88
2022/09/26 07:18:51;;;;;;;;;;;9.20;99.90;;;;;;4981608;28;19917;-88
2022/09/26 07:21:40;;;;;;;;;;;9.30;99.90;;;;;;4995703;28;19909;-88
2022/09/26 07:24:23;;;;;;;;;;;9.30;99.90;;;;;;5012063;28;19913;-88
2022/09/26 07:26:49;;;;;;;;;;;9.20;99.90;;;;;;4979331;28;20373;-88
2022/09/26 07:29:15;;;;;;;;;;;9.10;99.90;;;;;;4979106;28;19917;-87
2022/09/26 07:31:41;;;;;;;;;;;9.00;99.90;;;;;;5012000;28;19909;-88
2022/09/26 07:34:16;;;;;;;;;;;9.00;99.90;;;;;;4980618;28;19909;-88
2022/09/26 07:36:42;;;;;;;;;;;9.10;99.90;;;;;;4979067;28;20435;-88
2022/09/26 07:39:09;;;;;;;;;;;9.10;99.90;;;;;;4979005;28;19905;-88
2022/09/26 07:41:35;;;;;;;;;;;9.20;99.90;;;;;;4978854;28;19909;-88
2022/09/26 07:44:01;;;;;;;;;;;9.30;99.90;;;;;;4994185;28;19913;-87
2022/09/26 07:52:13;;;;;;;;;;;9.60;99.90;;;;;;5011660;28;20352;-87
2022/09/26 07:54:53;;;;;;;;;;;9.70;99.90;;;;;;5011339;28;19961;-87
2022/09/26 07:57:19;;;;;;;;;;;9.50;99.90;;;;;;4994258;28;19941;-87
2022/09/26 08:00:12;;;;;;;;;;;9.50;99.90;;;;;;4995631;28;20378;-87
2022/09/26 08:02:46;;;;;;;;;;;9.70;99.90;;;;;;4979613;28;19910;-87
2022/09/26 08:05:18;;;;;;;;;;;9.60;99.90;;;;;;4978895;28;19916;-87
2022/09/26 08:07:45;;;;;;;;;;;9.80;99.90;;;;;;4978811;28;19909;-87
2022/09/26 08:10:34;;;;;;;;;;;9.80;99.90;;;;;;4981654;28;19968;-88
2022/09/26 08:13:30;;;;;;;;;;;9.90;99.90;;;;;;4990425;28;19909;-89
2022/09/26 08:16:25;;;;;;;;;;;10.20;99.90;;;;;;4998082;28;19913;-88
2022/09/26 08:18:54;;;;;;;;;;;10.30;99.90;;;;;;4978720;28;20393;-88
2022/09/26 08:21:20;;;;;;;;;;;10.30;99.90;;;;;;4977940;28;19992;-88
2022/09/26 08:23:47;;;;;;;;;;;10.40;99.90;;;;;;5010560;28;19914;-88
2022/09/26 08:26:35;;;;;;;;;;;10.60;99.90;;;;;;4987512;28;20361;-88
2022/09/26 08:29:11;;;;;;;;;;;10.80;99.90;;;;;;4978606;28;19917;-89
2022/09/26 08:31:37;;;;;;;;;;;10.90;99.90;;;;;;4978699;28;19914;-87
2022/09/26 08:34:04;;;;;;;;;;;11.00;99.90;;;;;;4978201;28;19906;-88
2022/09/26 08:36:31;;;;;;;;;;;11.30;99.90;;;;;;4978322;28;19945;-87
2022/09/26 08:39:10;;;;;;;;;;;11.60;99.90;;;;;;4980393;28;19909;-89
2022/09/26 08:42:08;;;;;;;;;;;11.70;99.90;;;;;;4994554;28;19920;-88
2022/09/26 08:45:00;;;;;;;;;;;11.50;99.90;;;;;;5010856;28;19963;-88
2022/09/26 08:47:49;;;;;;;;;;;11.20;99.90;;;;;;4994347;28;19956;-88
2022/09/26 08:50:32;;;;;;;;;;;11.30;99.90;;;;;;4979032;28;20008;-87
2022/09/26 08:53:17;;;;;;;;;;;11.20;99.90;;;;;;4990749;28;19916;-88
2022/09/26 08:55:49;;;;;;;;;;;11.20;99.90;;;;;;4994248;28;19972;-88
2022/09/26 08:58:25;;;;;;;;;;;11.30;99.90;;;;;;4977995;28;20368;-87
2022/09/26 09:00:55;;;;;;;;;;;11.50;99.90;;;;;;5010042;28;19960;-87
2022/09/26 09:03:44;;;;;;;;;;;11.80;99.90;;;;;;4977294;28;19952;-87
2022/09/26 09:06:11;;;;;;;;;;;12.60;99.90;;;;;;4976987;28;19909;-88
2022/09/26 09:08:41;;;;;;;;;;;13.00;99.90;;;;;;4977387;28;19910;-88
2022/09/26 09:11:49;;;;;;;;;;;12.80;99.90;;;;;;4988128;28;19914;-88
2022/09/26 09:14:34;;;;;;;;;;;12.60;99.90;;;;;;5009990;28;24103;-87
2022/09/26 09:17:29;;;;;;;;;;;12.40;99.90;;;;;;4993557;28;19917;-87
2022/09/26 09:20:19;;;;;;;;;;;12.00;99.90;;;;;;4993909;28;20361;-88
2022/09/26 09:23:19;;;;;;;;;;;11.80;99.90;;;;;;4993705;28;19956;-88
2022/09/26 09:26:07;;;;;;;;;;;11.60;99.90;;;;;;5009795;28;19910;-87
2022/09/26 09:28:32;;;;;;;;;;;11.40;99.90;;;;;;5009853;28;19959;-88
2022/09/26 09:31:00;;;;;;;;;;;11.70;99.90;;;;;;4993418;28;19972;-88
2022/09/26 09:33:41;;;;;;;;;;;12.00;99.90;;;;;;5009826;28;19992;-89
2022/09/26 09:36:19;;;;;;;;;;;12.80;99.90;;;;;;5010082;28;19909;-88
2022/09/26 09:39:05;;;;;;;;;;;12.70;99.90;;;;;;4979667;28;19913;-88
2022/09/26 09:42:00;;;;;;;;;;;12.50;99.90;;;;;;4980663;28;20532;-87
2022/09/26 09:44:58;;;;;;;;;;;12.20;99.90;;;;;;4977304;28;20387;-88
2022/09/26 09:47:25;;;;;;;;;;;11.90;99.90;;;;;;4966295;28;20265;-87
2022/09/26 09:49:52;;;;;;;;;;;11.60;99.90;;;;;;4993647;28;19968;-88
2022/09/26 09:52:30;;;;;;;;;;;11.90;99.90;;;;;;4994011;28;19910;-88
2022/09/26 09:55:16;;;;;;;;;;;12.30;99.90;;;;;;4992970;28;20024;-88
2022/09/26 09:57:41;;;;;;;;;;;12.40;99.90;;;;;;4993630;28;19910;-88
2022/09/26 10:00:21;;;;;;;;;;;12.30;99.90;;;;;;5009360;28;20281;-88
2022/09/26 10:03:02;;;;;;;;;;;12.10;99.90;;;;;;4978671;28;19910;-89
2022/09/26 10:05:36;;;;;;;;;;;12.20;99.90;;;;;;4993238;28;19913;-87
2022/09/26 10:08:03;;;;;;;;;;;12.10;99.90;;;;;;4990549;28;20384;-88
2022/09/26 10:11:14;;;;;;;;;;;12.00;99.90;;;;;;5000204;28;19948;-88
2022/09/26 10:14:02;;;;;;;;;;;12.10;99.90;;;;;;4991518;28;19910;-88
2022/09/26 10:17:19;;;;;;;;;;;11.90;99.90;;;;;;4993517;28;20004;-88
2022/09/26 10:20:34;;;;;;;;;;;12.30;99.90;;;;;;4961647;28;19910;-88
2022/09/26 10:23:03;;;;;;;;;;;13.90;99.90;;;;;;4996644;28;19909;-88
2022/09/26 10:25:29;;;;;;;;;;;14.70;99.90;;;;;;4980780;28;19917;-88
2022/09/26 10:27:55;;;;;;;;;;;14.40;99.90;;;;;;4980948;28;19914;-89
2022/09/26 10:30:24;;;;;;;;;;;14.20;99.90;;;;;;4980948;28;19913;-89
2022/09/26 10:32:52;;;;;;;;;;;14.20;99.90;;;;;;5012903;28;19921;-88
2022/09/26 10:35:40;;;;;;;;;;;14.50;99.90;;;;;;4996133;28;19932;-89
2022/09/26 10:38:27;;;;;;;;;;;15.30;99.90;;;;;;5012007;28;19916;-88
2022/09/26 10:41:20;;;;;;;;;;;15.90;99.90;;;;;;4980029;28;19909;-89
2022/09/26 10:43:51;;;;;;;;;;;16.60;99.90;;;;;;4978131;28;20001;-88
2022/09/26 10:46:37;;;;;;;;;;;16.70;99.90;;;;;;4995979;28;20312;-88
2022/09/26 10:49:36;;;;;;;;;;;16.80;99.90;;;;;;4981977;28;24057;-89
2022/09/26 10:52:25;;;;;;;;;;;16.10;99.90;;;;;;4995539;28;20453;-89
2022/09/26 10:54:56;;;;;;;;;;;15.50;99.90;;;;;;4978475;28;19910;-87
2022/09/26 10:57:34;;;;;;;;;;;14.80;99.90;;;;;;4978163;28;20009;-88
2022/09/26 11:00:05;;;;;;;;;;;14.40;99.90;;;;;;4979643;28;19910;-87
2022/09/26 11:02:31;;;;;;;;;;;13.70;99.90;;;;;;5011753;28;19933;-87
2022/09/26 11:07:45;;;;;;;;;;;12.80;99.90;;;;;;4997488;28;19909;-88
2022/09/26 11:10:40;;;;;;;;;;;12.60;99.90;;;;;;4995664;28;19913;-89
2022/09/26 11:13:37;;;;;;;;;;;12.80;99.90;;;;;;4993349;28;19910;-87
2022/09/26 11:16:09;;;;;;;;;;;12.60;99.90;;;;;;4995918;28;24061;-89
2022/09/26 11:18:47;;;;;;;;;;;12.50;99.90;;;;;;4979920;28;19917;-87
2022/09/26 11:21:16;;;;;;;;;;;12.30;99.90;;;;;;4996018;28;19988;-88
2022/09/26 11:23:45;;;;;;;;;;;12.60;99.90;;;;;;4995849;28;20005;-88
2022/09/26 11:26:17;;;;;;;;;;;12.70;99.90;;;;;;4995669;28;19914;-88
2022/09/26 11:29:02;;;;;;;;;;;12.50;99.90;;;;;;4979572;28;19953;-88
2022/09/26 11:31:37;;;;;;;;;;;12.90;99.90;;;;;;4995430;28;20451;-87
2022/09/26 11:34:25;;;;;;;;;;;13.00;99.90;;;;;;4996933;28;19910;-88
2022/09/26 11:37:20;;;;;;;;;;;13.00;99.90;;;;;;4980575;28;20042;-88
2022/09/26 11:40:04;;;;;;;;;;;12.90;99.90;;;;;;4978783;28;19909;-89
2022/09/26 11:42:53;;;;;;;;;;;13.00;99.90;;;;;;4995262;28;19910;-88
2022/09/26 11:45:29;;;;;;;;;;;13.10;99.90;;;;;;4995482;28;19958;-87
2022/09/26 11:48:23;;;;;;;;;;;13.20;99.90;;;;;;4996939;28;19913;-88
2022/09/26 11:51:51;;;;;;;;;;;13.40;99.90;;;;;;4998886;28;20317;-89
2022/09/26 11:54:27;;;;;;;;;;;14.10;99.90;;;;;;4973354;28;19921;-88
2022/09/26 11:57:00;;;;;;;;;;;15.20;99.90;;;;;;5011346;28;24079;-88
2022/09/26 11:59:51;;;;;;;;;;;16.20;99.90;;;;;;4994460;28;20004;-89
2022/09/26 12:02:21;;;;;;;;;;;17.00;99.90;;;;;;4977411;28;19920;-89
2022/09/26 12:05:06;;;;;;;;;;;17.30;99.90;;;;;;5009175;28;19909;-88
2022/09/26 12:07:38;;;;;;;;;;;17.60;99.90;;;;;;5010774;28;19957;-89
2022/09/26 12:10:20;;;;;;;;;;;17.40;99.90;;;;;;4992976;28;20393;-89
2022/09/26 12:13:04;;;;;;;;;;;17.10;99.90;;;;;;4994914;28;20048;-88
2022/09/26 12:15:30;;;;;;;;;;;16.60;99.90;;;;;;4994116;28;20365;-88
2022/09/26 12:18:04;;;;;;;;;;;16.10;99.90;;;;;;4993042;28;20035;-88
2022/09/26 12:20:53;;;;;;;;;;;15.50;99.90;;;;;;5010093;28;19961;-88
2022/09/26 12:23:37;;;;;;;;;;;14.90;99.90;;;;;;4977152;28;19910;-89
2022/09/26 12:26:13;;;;;;;;;;;14.10;99.90;;;;;;4993793;28;20358;-88
2022/09/26 12:28:46;;;;;;;;;;;13.10;99.90;;;;;;4994436;28;20055;-88
2022/09/26 12:31:22;;;;;;;;;;;12.20;99.90;;;;;;4994290;28;20428;-87
2022/09/26 12:34:06;;;;;;;;;;;11.50;99.90;;;;;;4978270;28;19921;-87
2022/09/26 12:36:46;;;;;;;;;;;11.20;99.90;;;;;;4994324;28;20325;-88
2022/09/26 12:39:20;;;;;;;;;;;10.90;99.90;;;;;;4994568;28;19910;-88
2022/09/26 12:42:23;;;;;;;;;;;10.80;99.90;;;;;;4977974;28;19909;-87
2022/09/26 12:45:07;;;;;;;;;;;10.80;99.90;;;;;;4984366;28;20357;-88
2022/09/26 12:47:49;;;;;;;;;;;10.80;99.90;;;;;;5011212;28;19917;-88
2022/09/26 12:50:15;;;;;;;;;;;10.90;99.90;;;;;;4995050;28;19922;-90
2022/09/26 12:52:40;;;;;;;;;;;10.90;99.90;;;;;;4995109;28;20371;-90
2022/09/26 12:55:12;;;;;;;;;;;10.80;99.90;;;;;;4995926;28;20254;-88
2022/09/26 12:58:00;;;;;;;;;;;10.80;99.90;;;;;;4993873;28;20324;-88
2022/09/26 13:00:30;;;;;;;;;;;10.80;99.90;;;;;;4993203;28;19916;-87
2022/09/26 13:02:55;;;;;;;;;;;10.90;99.90;;;;;;4977128;28;19909;-87
2022/09/26 13:05:40;;;;;;;;;;;10.80;99.90;;;;;;4993196;28;19910;-87
2022/09/26 13:08:08;;;;;;;;;;;10.70;99.90;;;;;;4989393;28;19910;-86
2022/09/26 13:10:37;;;;;;;;;;;10.50;99.90;;;;;;4992796;28;19936;-88
2022/09/26 13:13:21;;;;;;;;;;;10.50;99.90;;;;;;4993351;28;19910;-87
2022/09/26 13:16:02;;;;;;;;;;;10.60;99.90;;;;;;4994640;28;19984;-87
2022/09/26 13:18:36;;;;;;;;;;;10.60;99.90;;;;;;5009508;28;19921;-88
2022/09/26 13:21:07;;;;;;;;;;;10.70;99.90;;;;;;4994516;28;20270;-87
2022/09/26 13:23:36;;;;;;;;;;;10.80;99.90;;;;;;4977188;28;19910;-87
2022/09/26 13:26:07;;;;;;;;;;;10.80;99.90;;;;;;4977021;28;19920;-87
2022/09/26 13:28:45;;;;;;;;;;;10.80;99.90;;;;;;5009833;28;20424;-87
2022/09/26 13:31:39;;;;;;;;;;;10.90;99.90;;;;;;5009707;28;19914;-87
2022/09/26 13:34:17;;;;;;;;;;;11.00;99.90;;;;;;4984929;28;19913;-87
2022/09/26 13:36:43;;;;;;;;;;;11.20;99.90;;;;;;5009824;28;20432;-88
2022/09/26 13:39:09;;;;;;;;;;;11.40;99.90;;;;;;4978927;28;20373;-88
2022/09/26 13:41:35;;;;;;;;;;;11.50;99.90;;;;;;5009379;28;20009;-87
2022/09/26 13:44:11;;;;;;;;;;;11.60;99.90;;;;;;5009599;28;19917;-88
2022/09/26 13:47:06;;;;;;;;;;;11.70;99.90;;;;;;4976749;28;19909;-88
2022/09/26 13:49:32;;;;;;;;;;;11.70;99.90;;;;;;4972360;28;20354;-87
2022/09/26 13:52:01;;;;;;;;;;;11.70;99.90;;;;;;5008898;28;20284;-87
2022/09/26 13:54:46;;;;;;;;;;;11.60;99.90;;;;;;4993351;28;19913;-88
2022/09/26 13:57:34;;;;;;;;;;;11.50;99.90;;;;;;4980723;28;19913;-87
2022/09/26 14:00:22;;;;;;;;;;;11.60;99.90;;;;;;4980333;28;19913;-87
2022/09/26 14:03:17;;;;;;;;;;;11.50;99.90;;;;;;4996766;28;19972;-87
2022/09/26 14:05:43;;;;;;;;;;;11.40;99.90;;;;;;4976335;28;20004;-89
2022/09/26 14:11:13;;;;;;;;;;;11.00;99.90;;;;;;4997839;28;19920;-88
2022/09/26 14:13:39;;;;;;;;;;;10.70;99.90;;;;;;4997028;28;19918;-87
2022/09/26 14:16:23;;;;;;;;;;;10.50;99.90;;;;;;4979928;28;19916;-87
2022/09/26 14:18:55;;;;;;;;;;;10.30;99.90;;;;;;4996442;28;19989;-87
2022/09/26 14:21:39;;;;;;;;;;;10.20;99.90;;;;;;4980363;28;19917;-86
2022/09/26 14:24:24;;;;;;;;;;;10.00;99.90;;;;;;4996363;28;20709;-87
2022/09/26 14:26:56;;;;;;;;;;;9.80;99.90;;;;;;4979537;28;19916;-86
2022/09/26 14:29:28;;;;;;;;;;;9.70;99.90;;;;;;4979934;28;20028;-85
2022/09/26 14:32:04;;;;;;;;;;;9.60;99.90;;;;;;4996261;28;19916;-86
2022/09/26 14:34:35;;;;;;;;;;;9.60;99.90;;;;;;5012160;28;19972;-86
2022/09/26 14:37:02;;;;;;;;;;;9.50;99.90;;;;;;5012472;28;19909;-86
2022/09/26 14:39:42;;;;;;;;;;;9.50;99.90;;;;;;4995624;28;20357;-86
2022/09/26 14:42:09;;;;;;;;;;;9.60;99.90;;;;;;5012321;28;19936;-86
2022/09/26 14:44:35;;;;;;;;;;;9.60;99.90;;;;;;5012053;28;19968;-85
2022/09/26 14:47:03;;;;;;;;;;;9.60;99.90;;;;;;4979526;28;19912;-85
2022/09/26 14:49:29;;;;;;;;;;;9.50;99.90;;;;;;4979588;28;20281;-85
2022/09/26 14:51:58;;;;;;;;;;;9.50;99.90;;;;;;4979818;28;20004;-87
2022/09/26 14:54:33;;;;;;;;;;;9.50;99.90;;;;;;4979771;28;19913;-85
2022/09/26 14:57:03;;;;;;;;;;;9.40;99.90;;;;;;5011855;28;20366;-84
2022/09/26 14:59:32;;;;;;;;;;;9.30;99.90;;;;;;4979552;28;19956;-85
2022/09/26 15:02:16;;;;;;;;;;;9.30;99.90;;;;;;5011876;28;20714;-85
2022/09/26 15:04:42;;;;;;;;;;;9.30;99.90;;;;;;4994798;28;19917;-85
2022/09/26 15:07:21;;;;;;;;;;;9.40;99.90;;;;;;4995807;28;19952;-85
2022/09/26 15:09:57;;;;;;;;;;;9.30;99.90;;;;;;4978876;28;19922;-85
2022/09/26 15:12:38;;;;;;;;;;;9.20;99.90;;;;;;4979045;28;19925;-85
2022/09/26 15:15:06;;;;;;;;;;;9.20;99.90;;;;;;4979374;28;19939;-85
2022/09/26 15:17:35;;;;;;;;;;;9.20;99.90;;;;;;4996562;28;19913;-85
2022/09/26 15:20:04;;;;;;;;;;;9.10;99.90;;;;;;4978650;28;20387;-85
2022/09/26 15:22:30;;;;;;;;;;;9.10;99.90;;;;;;4993204;28;19909;-85
2022/09/26 15:25:07;;;;;;;;;;;9.10;99.90;;;;;;4995398;28;20424;-85
2022/09/26 15:27:33;;;;;;;;;;;9.10;99.90;;;;;;4996708;28;20305;-85
2022/09/26 15:30:26;;;;;;;;;;;9.10;99.90;;;;;;4978990;28;19940;-85